createdAt,value
2022-10-22T00:01:39.243Z,100765.97
2022-10-22T00:04:10.521Z,100773.00
2022-10-22T00:06:43.017Z,100776.47
2022-10-22T00:09:12.014Z,100769.59
2022-10-22T00:11:40.434Z,100772.47
2022-10-22T00:14:09.339Z,100782.75
2022-10-22T00:16:37.570Z,100770.72
2022-10-22T00:19:05.416Z,100769.84
2022-10-22T00:21:36.672Z,100764.56
2022-10-22T00:24:05.306Z,100766.22
2022-10-22T00:26:33.131Z,100766.09
2022-10-22T00:29:00.834Z,100762.63
2022-10-22T00:31:29.094Z,100760.09
2022-10-22T00:33:56.858Z,100756.69
2022-10-22T00:36:24.903Z,100755.91
2022-10-22T00:38:52.900Z,100754.09
2022-10-22T00:41:20.888Z,100752.41
2022-10-22T00:44:00.545Z,100748.16
2022-10-22T00:46:29.117Z,100747.44
2022-10-22T00:48:59.553Z,100737.28
2022-10-22T00:51:30.877Z,100754.47
2022-10-22T00:54:05.751Z,100750.19
2022-10-22T00:56:33.882Z,100758.06
2022-10-22T00:59:04.260Z,100751.38
2022-10-22T01:01:32.777Z,100763.28
2022-10-22T01:04:01.136Z,100759.81
2022-10-22T01:06:33.632Z,100764.84
2022-10-22T01:09:01.483Z,100761.56
2022-10-22T01:11:48.200Z,100772.00
2022-10-22T01:14:34.594Z,100770.34
2022-10-22T01:17:06.229Z,100773.78
2022-10-22T01:19:43.242Z,100774.69
2022-10-22T01:22:49.688Z,100774.62
2022-10-22T01:25:35.768Z,100770.44
2022-10-22T01:28:22.950Z,100766.25
2022-10-22T01:30:54.179Z,100761.31
2022-10-22T01:33:25.483Z,100752.97
2022-10-22T01:35:54.175Z,100755.84
2022-10-22T01:38:25.465Z,100768.16
2022-10-22T01:40:53.847Z,100770.00
2022-10-22T01:43:22.169Z,100759.66
2022-10-22T01:45:58.930Z,100764.91
2022-10-22T01:48:38.723Z,100764.91
2022-10-22T01:51:06.545Z,100771.06
2022-10-22T01:53:38.184Z,100770.19
2022-10-22T01:56:28.361Z,100771.91
2022-10-22T01:59:04.481Z,100769.22
2022-10-22T02:02:00.363Z,100780.41
2022-10-22T02:04:41.471Z,100783.88
2022-10-22T02:07:14.287Z,100769.22
2022-10-22T02:09:43.979Z,100773.41
2022-10-22T02:12:14.490Z,100780.28
2022-10-22T02:14:45.934Z,100774.47
2022-10-22T02:17:19.164Z,100780.38
2022-10-22T02:19:57.851Z,100786.56
2022-10-22T02:22:27.192Z,100786.34
2022-10-22T02:24:56.352Z,100781.94
2022-10-22T02:27:32.646Z,100781.03
2022-10-22T02:30:27.314Z,100785.44
2022-10-22T02:33:27.042Z,100778.59
2022-10-22T02:35:56.682Z,100781.03
2022-10-22T02:38:28.614Z,100782.00
2022-10-22T02:40:57.166Z,100781.16
2022-10-22T02:43:25.745Z,100782.00
2022-10-22T02:45:53.688Z,100769.84
2022-10-22T02:48:22.925Z,100773.28
2022-10-22T02:50:50.873Z,100779.22
2022-10-22T02:53:18.802Z,100786.41
2022-10-22T02:55:47.084Z,100786.41
2022-10-22T02:58:15.305Z,100781.19
2022-10-22T03:00:43.276Z,100793.16
2022-10-22T03:03:11.589Z,100785.47
2022-10-22T03:05:42.423Z,100783.81
2022-10-22T03:08:13.250Z,100790.69
2022-10-22T03:10:41.559Z,100782.22
2022-10-22T03:13:09.442Z,100796.84
2022-10-22T03:15:37.346Z,100788.16
2022-10-22T03:18:05.985Z,100787.28
2022-10-22T03:20:33.954Z,100789.75
2022-10-22T03:23:03.036Z,100794.03
2022-10-22T03:25:34.777Z,100783.69
2022-10-22T03:28:08.288Z,100795.75
2022-10-22T03:30:36.863Z,100792.19
2022-10-22T03:33:04.764Z,100781.00
2022-10-22T03:35:37.455Z,100790.38
2022-10-22T03:38:05.578Z,100794.66
2022-10-22T03:40:36.390Z,100795.56
2022-10-22T03:43:04.212Z,100794.59
2022-10-22T03:45:32.462Z,100798.69
2022-10-22T03:48:00.467Z,100802.03
2022-10-22T03:50:28.162Z,100798.53
2022-10-22T03:53:00.031Z,100800.34
2022-10-22T03:55:28.110Z,100799.25
2022-10-22T03:57:56.384Z,100803.50
2022-10-22T04:00:24.300Z,100800.78
2022-10-22T04:02:52.569Z,100813.56
2022-10-22T04:05:23.113Z,100802.28
2022-10-22T04:07:50.916Z,100809.13
2022-10-22T04:10:19.769Z,100814.97
2022-10-22T04:12:48.874Z,100806.16
2022-10-22T04:15:17.185Z,100799.22
2022-10-22T04:17:45.309Z,100788.03
2022-10-22T04:20:13.061Z,100805.88
2022-10-22T04:22:40.953Z,100804.13
2022-10-22T04:25:09.590Z,100810.88
2022-10-22T04:27:38.085Z,100812.56
2022-10-22T04:30:07.002Z,100817.66
2022-10-22T04:32:35.636Z,100821.03
2022-10-22T04:35:03.875Z,100814.16
2022-10-22T04:37:33.230Z,100816.75
2022-10-22T04:40:01.633Z,100815.03
2022-10-22T04:42:30.849Z,100819.41
2022-10-22T04:44:59.101Z,100813.28
2022-10-22T04:47:27.792Z,100821.03
2022-10-22T04:49:55.874Z,100812.56
2022-10-22T04:52:24.271Z,100816.00
2022-10-22T04:54:55.819Z,100825.50
2022-10-22T04:57:24.033Z,100821.28
2022-10-22T04:59:53.033Z,100816.19
2022-10-22T05:02:24.645Z,100824.66
2022-10-22T05:04:54.876Z,100821.16
2022-10-22T05:07:24.391Z,100826.16
2022-10-22T05:09:53.920Z,100826.94
2022-10-22T05:12:22.184Z,100824.19
2022-10-22T05:14:50.820Z,100830.03
2022-10-22T05:17:20.866Z,100836.87
2022-10-22T05:19:49.556Z,100828.09
2022-10-22T05:22:19.349Z,100825.38
2022-10-22T05:24:49.613Z,100839.91
2022-10-22T05:29:53.392Z,100829.31
2022-10-22T05:32:23.362Z,100828.09
2022-10-22T05:34:53.171Z,100824.56
2022-10-22T05:37:25.131Z,100833.81
2022-10-22T05:40:01.811Z,100827.47
2022-10-22T05:42:44.513Z,100833.37
2022-10-22T05:45:14.728Z,100836.72
2022-10-22T05:47:43.184Z,100839.03
2022-10-22T05:50:13.698Z,100840.72
2022-10-22T05:52:43.476Z,100845.44
2022-10-22T05:55:13.196Z,100842.62
2022-10-22T05:57:43.149Z,100827.97
2022-10-22T06:00:15.710Z,100843.09
2022-10-22T06:02:51.623Z,100841.28
2022-10-22T06:05:19.842Z,100841.47
2022-10-22T06:07:49.006Z,100843.53
2022-10-22T06:10:24.804Z,100846.00
2022-10-22T06:12:58.872Z,100850.94
2022-10-22T06:15:27.783Z,100844.63
2022-10-22T06:17:57.205Z,100840.00
2022-10-22T06:20:26.908Z,100846.56
2022-10-22T06:23:00.344Z,100842.03
2022-10-22T06:25:31.459Z,100843.78
2022-10-22T06:28:01.907Z,100840.97
2022-10-22T06:30:32.796Z,100842.34
2022-10-22T06:33:03.202Z,100841.56
2022-10-22T06:35:35.693Z,100847.66
2022-10-22T06:38:06.677Z,100844.28
2022-10-22T06:40:36.809Z,100851.31
2022-10-22T06:43:11.229Z,100854.37
2022-10-22T06:45:40.854Z,100855.31
2022-10-22T06:48:15.833Z,100860.37
2022-10-22T06:50:45.661Z,100854.19
2022-10-22T06:53:15.773Z,100854.97
2022-10-22T06:55:46.211Z,100860.00
2022-10-22T06:58:16.895Z,100863.19
2022-10-22T07:00:48.327Z,100863.97
2022-10-22T07:03:21.119Z,100867.34
2022-10-22T07:05:53.300Z,100860.16
2022-10-22T07:08:23.743Z,100860.16
2022-10-22T07:10:57.847Z,100861.88
2022-10-22T07:13:34.113Z,100857.91
2022-10-22T07:16:06.268Z,100862.53
2022-10-22T07:18:43.515Z,100869.19
2022-10-22T07:21:21.460Z,100865.91
2022-10-22T07:23:52.696Z,100868.19
2022-10-22T07:26:28.218Z,100869.03
2022-10-22T07:29:04.103Z,100868.75
2022-10-22T07:31:35.628Z,100866.75
2022-10-22T07:34:04.995Z,100872.31
2022-10-22T07:36:34.069Z,100869.66
2022-10-22T07:39:09.625Z,100876.69
2022-10-22T07:41:43.807Z,100878.16
2022-10-22T07:44:14.766Z,100871.75
2022-10-22T07:46:51.977Z,100879.72
2022-10-22T07:49:25.388Z,100875.62
2022-10-22T07:51:53.631Z,100885.13
2022-10-22T07:54:29.718Z,100879.91
2022-10-22T07:57:00.455Z,100881.91
2022-10-22T07:59:30.645Z,100879.75
2022-10-22T08:02:01.338Z,100884.47
2022-10-22T08:04:33.175Z,100895.88
2022-10-22T08:07:03.719Z,100883.06
2022-10-22T08:09:37.265Z,100890.47
2022-10-22T08:12:12.788Z,100898.41
2022-10-22T08:14:41.777Z,100895.47
2022-10-22T08:17:14.064Z,100894.03
2022-10-22T08:19:42.071Z,100892.81
2022-10-22T08:22:16.484Z,100890.06
2022-10-22T08:24:49.719Z,100884.91
2022-10-22T08:27:27.707Z,100898.81
2022-10-22T08:30:07.455Z,100887.03
2022-10-22T08:32:38.510Z,100888.56
2022-10-22T08:35:10.415Z,100885.75
2022-10-22T08:37:45.493Z,100891.00
2022-10-22T08:40:30.819Z,100891.41
2022-10-22T08:43:23.158Z,100891.19
2022-10-22T08:46:14.227Z,100886.97
2022-10-22T08:51:51.334Z,100887.44
2022-10-22T08:54:44.601Z,100888.37
2022-10-22T08:57:57.530Z,100885.50
2022-10-22T09:01:01.737Z,100876.44
2022-10-22T09:03:38.521Z,100876.12
2022-10-22T09:06:24.159Z,100886.03
2022-10-22T09:09:06.768Z,100883.34
2022-10-22T09:11:50.444Z,100885.47
2022-10-22T09:14:29.847Z,100879.47
2022-10-22T09:17:23.205Z,100876.03
2022-10-22T09:20:13.497Z,100880.66
2022-10-22T09:22:56.576Z,100880.53
2022-10-22T09:25:34.102Z,100874.31
2022-10-22T09:28:09.170Z,100884.81
2022-10-22T09:30:42.959Z,100880.59
2022-10-22T09:33:31.230Z,100874.47
2022-10-22T09:36:10.877Z,100869.88
2022-10-22T09:38:56.213Z,100872.25
2022-10-22T09:41:36.194Z,100873.25
2022-10-22T09:44:14.331Z,100869.03
2022-10-22T09:46:46.307Z,100869.62
2022-10-22T09:49:30.186Z,100866.09
2022-10-22T09:52:03.812Z,100869.03
2022-10-22T09:54:43.991Z,100870.34
2022-10-22T09:57:26.238Z,100864.72
2022-10-22T09:59:57.905Z,100863.19
2022-10-22T10:02:39.173Z,100859.81
2022-10-22T10:05:21.972Z,100868.56
2022-10-22T10:08:02.864Z,100868.47
2022-10-22T10:11:14.088Z,100859.34
2022-10-22T10:14:38.016Z,100862.06
2022-10-22T10:17:25.763Z,100853.50
2022-10-22T10:20:30.226Z,100854.66
2022-10-22T10:23:27.618Z,100857.47
2022-10-22T10:26:14.702Z,100849.94
2022-10-22T10:29:13.780Z,100850.72
2022-10-22T10:32:21.136Z,100839.94
2022-10-22T10:35:34.207Z,100836.28
2022-10-22T10:38:33.294Z,100834.69
2022-10-22T10:41:42.663Z,100837.78
2022-10-22T10:44:20.042Z,100832.59
2022-10-22T10:47:24.539Z,100833.16
2022-10-22T10:50:07.543Z,100836.47
2022-10-22T10:52:45.627Z,100838.72
2022-10-22T10:55:41.131Z,100831.59
2022-10-22T10:58:43.563Z,100830.88
2022-10-22T11:01:38.865Z,100823.56
2022-10-22T11:04:51.252Z,100825.81
2022-10-22T11:07:35.371Z,100828.41
2022-10-22T11:10:41.297Z,100824.25
2022-10-22T11:13:24.449Z,100821.44
2022-10-22T11:16:27.543Z,100819.41
2022-10-22T11:19:50.104Z,100828.09
2022-10-22T11:23:06.747Z,100823.25
2022-10-22T11:25:47.412Z,100819.94
2022-10-22T11:28:47.118Z,100815.34
2022-10-22T11:31:20.646Z,100826.25
2022-10-22T11:34:33.364Z,100814.28
2022-10-22T11:37:12.419Z,100814.53
2022-10-22T11:39:51.686Z,100814.22
2022-10-22T11:42:51.147Z,100814.19
2022-10-22T11:45:24.656Z,100811.25
2022-10-22T11:48:15.426Z,100813.50
2022-10-22T11:50:54.628Z,100806.72
2022-10-22T11:53:42.715Z,100813.31
2022-10-22T11:56:27.771Z,100811.84
2022-10-22T11:59:11.697Z,100809.50
2022-10-22T12:01:45.552Z,100802.22
2022-10-22T12:04:23.826Z,100802.06
2022-10-22T12:07:34.123Z,100807.19
2022-10-22T12:10:25.663Z,100801.78
2022-10-22T12:13:12.584Z,100799.66
2022-10-22T12:15:58.047Z,100796.66
2022-10-22T12:18:37.237Z,100790.72
2022-10-22T12:21:19.884Z,100790.53
2022-10-22T12:23:59.213Z,100792.09
2022-10-22T12:26:42.577Z,100789.13
2022-10-22T12:29:22.034Z,100786.56
2022-10-22T12:32:02.675Z,100786.44
2022-10-22T12:34:30.662Z,100787.16
2022-10-22T12:37:06.333Z,100780.56
2022-10-22T12:39:38.026Z,100776.06
2022-10-22T12:42:19.235Z,100775.66
2022-10-22T12:44:50.909Z,100777.22
2022-10-22T12:47:21.821Z,100772.69
2022-10-22T12:49:56.388Z,100773.75
2022-10-22T12:52:37.572Z,100766.59
2022-10-22T12:55:21.880Z,100770.53
2022-10-22T12:57:58.622Z,100762.13
2022-10-22T13:00:39.149Z,100757.00
2022-10-22T13:03:45.666Z,100762.13
2022-10-22T13:06:26.352Z,100747.69
2022-10-22T13:09:07.865Z,100760.69
2022-10-22T13:11:57.795Z,100757.97
2022-10-22T13:14:32.417Z,100759.69
2022-10-22T13:17:10.104Z,100753.75
2022-10-22T13:19:50.329Z,100757.38
2022-10-22T13:22:43.349Z,100756.44
2022-10-22T13:25:23.986Z,100753.06
2022-10-22T13:28:17.513Z,100757.97
2022-10-22T13:31:06.336Z,100753.75
2022-10-22T13:33:51.994Z,100751.12
2022-10-22T13:36:28.194Z,100754.78
2022-10-22T13:39:02.928Z,100744.28
2022-10-22T13:41:43.062Z,100740.50
2022-10-22T13:44:12.668Z,100744.75
2022-10-22T13:46:43.710Z,100743.50
2022-10-22T13:49:23.984Z,100747.25
2022-10-22T13:52:03.777Z,100744.84
2022-10-22T13:54:39.354Z,100740.41
2022-10-22T13:57:11.966Z,100741.31
2022-10-22T13:59:53.589Z,100744.91
2022-10-22T14:02:33.900Z,100742.66
2022-10-22T14:05:16.743Z,100749.66
2022-10-22T14:07:54.710Z,100748.50
2022-10-22T14:10:34.790Z,100742.00
2022-10-22T14:13:05.444Z,100746.19
2022-10-22T14:15:54.805Z,100746.53
2022-10-22T14:18:34.546Z,100746.72
2022-10-22T14:21:10.650Z,100748.00
2022-10-22T14:23:44.826Z,100743.06
2022-10-22T14:26:25.918Z,100754.47
2022-10-22T14:29:14.389Z,100744.19
2022-10-22T14:31:54.419Z,100753.78
2022-10-22T14:34:40.112Z,100747.31
2022-10-22T14:37:25.243Z,100747.06
2022-10-22T14:40:07.845Z,100754.22
2022-10-22T14:42:48.806Z,100752.13
2022-10-22T14:45:27.276Z,100754.03
2022-10-22T14:48:02.910Z,100750.62
2022-10-22T14:50:30.588Z,100747.25
2022-10-22T14:53:06.348Z,100751.91
2022-10-22T14:55:47.417Z,100755.16
2022-10-22T14:58:30.963Z,100757.25
2022-10-22T15:01:09.557Z,100749.84
2022-10-22T15:03:45.888Z,100735.87
2022-10-22T15:06:15.814Z,100752.31
2022-10-22T15:08:45.869Z,100752.56
2022-10-22T15:11:18.492Z,100755.44
2022-10-22T15:13:56.890Z,100746.03
2022-10-22T15:16:37.142Z,100748.38
2022-10-22T15:19:08.874Z,100754.81
2022-10-22T15:21:38.791Z,100754.19
2022-10-22T15:24:11.743Z,100755.59
2022-10-22T15:26:41.558Z,100753.41
2022-10-22T15:29:17.988Z,100762.53
2022-10-22T15:31:59.318Z,100755.87
2022-10-22T15:34:32.198Z,100758.09
2022-10-22T15:37:12.298Z,100758.09
2022-10-22T15:39:48.233Z,100746.94
2022-10-22T15:42:23.580Z,100754.81
2022-10-22T15:45:06.219Z,100755.44
2022-10-22T15:48:03.974Z,100762.53
2022-10-22T15:50:48.456Z,100750.34
2022-10-22T15:53:18.635Z,100756.59
2022-10-22T15:55:55.636Z,100756.06
2022-10-22T15:58:29.234Z,100757.94
2022-10-22T16:01:09.579Z,100753.16
2022-10-22T16:03:46.240Z,100759.97
2022-10-22T16:06:23.652Z,100760.38
2022-10-22T16:09:07.092Z,100759.50
2022-10-22T16:11:44.604Z,100754.66
2022-10-22T16:14:20.928Z,100752.88
2022-10-22T16:16:59.902Z,100753.84
2022-10-22T16:19:33.651Z,100757.34
2022-10-22T16:22:11.967Z,100748.34
2022-10-22T16:24:53.403Z,100748.41
2022-10-22T16:27:28.687Z,100752.75
2022-10-22T16:30:11.236Z,100759.97
2022-10-22T16:32:45.679Z,100768.66
2022-10-22T16:35:21.665Z,100764.38
2022-10-22T16:37:54.824Z,100764.38
2022-10-22T16:40:32.938Z,100758.94
2022-10-22T16:43:07.762Z,100760.16
2022-10-22T16:45:54.244Z,100756.47
2022-10-22T16:48:26.493Z,100753.91
2022-10-22T16:50:59.423Z,100755.53
2022-10-22T16:56:16.696Z,100757.56
2022-10-22T16:58:58.797Z,100756.72
2022-10-22T17:01:45.856Z,100757.75
2022-10-22T17:04:20.082Z,100739.00
2022-10-22T17:07:03.083Z,100751.69
2022-10-22T17:09:44.549Z,100750.97
2022-10-22T17:12:29.836Z,100745.75
2022-10-22T17:15:02.587Z,100742.37
2022-10-22T17:17:35.126Z,100736.50
2022-10-22T17:20:07.828Z,100744.06
2022-10-22T17:22:48.276Z,100745.87
2022-10-22T17:25:50.774Z,100744.97
2022-10-22T17:28:28.487Z,100731.28
2022-10-22T17:31:09.735Z,100731.38
2022-10-22T17:33:51.455Z,100731.22
2022-10-22T17:36:34.814Z,100731.22
2022-10-22T17:39:23.553Z,100738.25
2022-10-22T17:42:03.601Z,100733.88
2022-10-22T17:44:37.269Z,100725.37
2022-10-22T17:47:16.041Z,100726.03
2022-10-22T17:49:48.926Z,100727.84
2022-10-22T17:52:28.402Z,100728.69
2022-10-22T17:55:14.843Z,100721.91
2022-10-22T17:57:59.785Z,100724.41
2022-10-22T18:00:38.546Z,100719.19
2022-10-22T18:03:25.692Z,100716.66
2022-10-22T18:06:12.368Z,100712.22
2022-10-22T18:08:49.548Z,100716.69
2022-10-22T18:11:25.879Z,100720.19
2022-10-22T18:14:07.695Z,100713.19
2022-10-22T18:16:55.411Z,100717.63
2022-10-22T18:19:33.234Z,100708.00
2022-10-22T18:22:07.769Z,100703.56
2022-10-22T18:24:43.959Z,100708.84
2022-10-22T18:27:30.312Z,100695.88
2022-10-22T18:30:12.036Z,100707.00
2022-10-22T18:32:52.077Z,100700.19
2022-10-22T18:35:28.066Z,100689.56
2022-10-22T18:37:59.582Z,100693.22
2022-10-22T18:40:36.316Z,100693.53
2022-10-22T18:43:29.046Z,100682.75
2022-10-22T18:45:58.300Z,100685.47
2022-10-22T18:48:42.932Z,100681.13
2022-10-22T18:51:28.290Z,100687.16
2022-10-22T18:54:22.171Z,100678.44
2022-10-22T18:57:03.340Z,100680.25
2022-10-22T18:59:46.188Z,100677.78
2022-10-22T19:02:20.290Z,100673.63
2022-10-22T19:04:51.953Z,100666.84
2022-10-22T19:07:24.053Z,100673.47
2022-10-22T19:09:59.410Z,100679.72
2022-10-22T19:12:36.113Z,100682.28
2022-10-22T19:15:18.007Z,100677.37
2022-10-22T19:17:53.329Z,100677.31
2022-10-22T19:20:24.969Z,100678.25
2022-10-22T19:23:03.328Z,100680.75
2022-10-22T19:25:35.035Z,100681.97
2022-10-22T19:28:08.715Z,100674.47
2022-10-22T19:30:44.953Z,100686.62
2022-10-22T19:33:17.231Z,100673.88
2022-10-22T19:35:50.158Z,100677.25
2022-10-22T19:38:20.920Z,100666.31
2022-10-22T19:40:53.938Z,100672.94
2022-10-22T19:43:23.776Z,100671.47
2022-10-22T19:45:51.663Z,100669.56
2022-10-22T19:48:29.735Z,100674.66
2022-10-22T19:51:30.212Z,100676.41
2022-10-22T19:54:08.565Z,100673.72
2022-10-22T19:56:47.461Z,100678.25
2022-10-22T19:59:27.303Z,100675.03
2022-10-22T20:01:59.614Z,100679.66
2022-10-22T20:04:31.227Z,100675.56
2022-10-22T20:07:06.440Z,100672.94
2022-10-22T20:09:49.703Z,100668.66
2022-10-22T20:12:39.465Z,100673.16
2022-10-22T20:15:09.651Z,100673.16
2022-10-22T20:17:42.507Z,100674.75
2022-10-22T20:20:14.861Z,100684.41
2022-10-22T20:22:47.237Z,100679.34
2022-10-22T20:25:26.233Z,100674.84
2022-10-22T20:27:56.939Z,100672.31
2022-10-22T20:30:29.659Z,100679.03
2022-10-22T20:33:07.021Z,100679.19
2022-10-22T20:35:40.682Z,100671.53
2022-10-22T20:38:19.274Z,100677.37
2022-10-22T20:41:00.268Z,100674.75
2022-10-22T20:43:29.811Z,100677.50
2022-10-22T20:46:02.768Z,100673.16
2022-10-22T20:48:32.828Z,100668.91
2022-10-22T20:51:05.314Z,100672.41
2022-10-22T20:53:36.880Z,100666.56
2022-10-22T20:56:11.390Z,100665.62
2022-10-22T20:58:39.904Z,100667.47
2022-10-22T21:01:19.062Z,100668.38
2022-10-22T21:03:51.481Z,100665.78
2022-10-22T21:06:23.452Z,100660.44
2022-10-22T21:08:53.088Z,100659.53
2022-10-22T21:11:24.025Z,100662.00
2022-10-22T21:13:52.323Z,100656.53
2022-10-22T21:16:22.050Z,100664.56
2022-10-22T21:19:01.744Z,100644.72
2022-10-22T21:21:40.615Z,100649.41
2022-10-22T21:24:09.939Z,100651.34
2022-10-22T21:26:40.817Z,100644.56
2022-10-22T21:29:10.878Z,100642.88
2022-10-22T21:31:41.463Z,100649.00
2022-10-22T21:34:13.316Z,100641.06
2022-10-22T21:36:44.870Z,100618.94
2022-10-22T21:39:15.066Z,100625.97
2022-10-22T21:41:43.118Z,100626.03
2022-10-22T21:44:14.721Z,100617.69
2022-10-22T21:46:46.390Z,100634.03
2022-10-22T21:49:14.715Z,100629.81
2022-10-22T21:51:43.844Z,100625.31
2022-10-22T21:54:12.980Z,100630.66
2022-10-22T21:56:42.834Z,100625.97
2022-10-22T21:59:10.795Z,100612.44
2022-10-22T22:01:39.321Z,100616.47
2022-10-22T22:04:07.646Z,100610.22
2022-10-22T22:06:35.781Z,100607.81
2022-10-22T22:09:05.629Z,100621.03
2022-10-22T22:11:37.159Z,100612.12
2022-10-22T22:14:04.932Z,100606.44
2022-10-22T22:16:35.016Z,100602.28
2022-10-22T22:19:07.830Z,100605.16
2022-10-22T22:21:36.646Z,100602.94
2022-10-22T22:24:04.733Z,100600.72
2022-10-22T22:26:33.064Z,100594.75
2022-10-22T22:29:01.674Z,100596.56
2022-10-22T22:31:32.968Z,100592.00
2022-10-22T22:34:07.910Z,100580.75
2022-10-22T22:36:38.924Z,100582.63
2022-10-22T22:39:09.323Z,100585.09
2022-10-22T22:41:37.156Z,100584.31
2022-10-22T22:44:05.258Z,100570.78
2022-10-22T22:46:33.873Z,100579.37
2022-10-22T22:49:01.594Z,100574.12
2022-10-22T22:51:29.406Z,100572.56
2022-10-22T22:53:58.857Z,100579.37
2022-10-22T22:56:29.494Z,100575.09
2022-10-22T22:58:58.170Z,100577.50
2022-10-22T23:01:35.331Z,100578.47
2022-10-22T23:04:12.064Z,100570.69
2022-10-22T23:06:40.708Z,100569.03
2022-10-22T23:09:11.264Z,100567.22
2022-10-22T23:11:43.658Z,100556.88
2022-10-22T23:14:17.444Z,100553.50
2022-10-22T23:16:51.643Z,100560.38
2022-10-22T23:19:22.453Z,100548.16
2022-10-22T23:21:53.283Z,100560.31
2022-10-22T23:24:24.539Z,100540.56
2022-10-22T23:26:53.788Z,100535.28
2022-10-22T23:29:27.591Z,100533.47
2022-10-22T23:32:05.275Z,100547.53
2022-10-22T23:34:33.529Z,100530.19
2022-10-22T23:37:01.380Z,100531.91
2022-10-22T23:39:30.288Z,100532.84
2022-10-22T23:41:59.012Z,100526.97
2022-10-22T23:44:27.063Z,100532.94
2022-10-22T23:46:55.506Z,100520.97
2022-10-22T23:49:23.939Z,100520.97
2022-10-22T23:51:51.779Z,100526.03
2022-10-22T23:54:19.740Z,100517.44
2022-10-22T23:56:51.032Z,100522.53
2022-10-22T23:59:18.924Z,100513.75
